createdAt,value
2022-12-11T00:11:08.849Z,13.50
2022-12-11T00:26:10.284Z,15.40
2022-12-11T00:41:11.634Z,14.50
2022-12-11T00:56:13.376Z,14.90
2022-12-11T01:11:14.413Z,14.50
2022-12-11T01:26:14.718Z,16.90
2022-12-11T01:41:16.000Z,14.10
2022-12-11T01:56:17.440Z,14.80
2022-12-11T02:11:18.069Z,15.10
2022-12-11T02:26:18.901Z,16.40
2022-12-11T02:41:20.652Z,15.70
2022-12-11T02:56:21.419Z,16.00
2022-12-11T03:11:22.194Z,15.80
2022-12-11T03:26:23.684Z,15.50
2022-12-11T03:41:24.395Z,16.20
2022-12-11T03:56:24.977Z,16.10
2022-12-11T04:11:25.143Z,14.50
2022-12-11T04:26:25.327Z,14.80
2022-12-11T04:41:26.035Z,12.80
2022-12-11T04:56:26.668Z,13.80
2022-12-11T05:11:26.874Z,14.40
2022-12-11T05:26:27.078Z,14.60
2022-12-11T05:41:27.226Z,15.00
2022-12-11T05:56:28.446Z,12.50
2022-12-11T06:11:29.127Z,10.90
2022-12-11T06:26:29.750Z,10.50
2022-12-11T06:41:29.984Z,9.80
2022-12-11T06:56:30.203Z,8.70
2022-12-11T07:11:30.462Z,9.20
2022-12-11T07:26:31.667Z,9.80
2022-12-11T07:41:32.247Z,8.10
2022-12-11T07:56:32.420Z,8.90
2022-12-11T08:11:32.749Z,8.60
2022-12-11T08:26:33.038Z,10.10
2022-12-11T08:41:34.801Z,10.00
2022-12-11T08:56:36.675Z,11.30
2022-12-11T09:11:37.571Z,9.50
2022-12-11T09:26:39.038Z,12.70
2022-12-11T09:41:41.078Z,8.50
2022-12-11T09:56:41.846Z,10.40
2022-12-11T10:11:42.479Z,9.30
2022-12-11T10:26:42.677Z,8.30
2022-12-11T10:41:42.899Z,10.30
2022-12-11T10:56:43.040Z,11.00
2022-12-11T11:11:43.500Z,9.10
2022-12-11T11:27:12.152Z,9.90
2022-12-11T11:41:50.029Z,7.90
2022-12-11T11:56:50.124Z,15.00
2022-12-11T12:11:50.393Z,9.50
2022-12-11T12:26:51.487Z,8.20
2022-12-11T12:41:54.968Z,8.30
2022-12-11T12:56:55.818Z,9.60
2022-12-11T13:11:57.735Z,10.60
2022-12-11T13:26:58.010Z,8.50
2022-12-11T13:41:58.251Z,8.90
2022-12-11T13:56:58.406Z,9.60
2022-12-11T14:11:59.228Z,9.10
2022-12-11T14:27:00.325Z,9.10
2022-12-11T14:42:00.835Z,9.70
2022-12-11T14:57:01.453Z,9.80
2022-12-11T15:12:02.030Z,14.20
2022-12-11T15:27:02.212Z,17.10
2022-12-11T15:42:02.445Z,11.70
2022-12-11T15:57:02.613Z,11.40
2022-12-11T16:12:02.921Z,13.20
2022-12-11T16:27:03.038Z,11.50
2022-12-11T16:42:03.255Z,10.10
2022-12-11T16:57:03.462Z,10.30
2022-12-11T17:12:04.143Z,11.30
2022-12-11T17:27:04.771Z,14.20
2022-12-11T17:42:04.937Z,12.00
2022-12-11T17:57:06.702Z,24.50
2022-12-11T18:12:10.377Z,13.20
2022-12-11T18:27:11.717Z,14.30
2022-12-11T18:42:34.214Z,14.60
2022-12-11T18:57:19.572Z,13.50
2022-12-11T19:12:19.718Z,14.40
2022-12-11T19:27:21.334Z,15.80
2022-12-11T19:42:22.022Z,14.60
2022-12-11T19:57:22.661Z,14.10
2022-12-11T20:12:23.785Z,12.50
2022-12-11T20:27:24.044Z,15.10
2022-12-11T20:42:24.109Z,15.40
2022-12-11T20:57:31.889Z,15.40
2022-12-11T21:12:31.912Z,15.70
2022-12-11T21:27:32.654Z,15.20
2022-12-11T21:42:33.356Z,15.00
2022-12-11T21:57:34.706Z,16.40
2022-12-11T22:12:35.327Z,18.00
2022-12-11T22:27:35.635Z,16.50
2022-12-11T22:42:35.690Z,16.30
2022-12-11T22:57:35.937Z,16.00
2022-12-11T23:12:36.609Z,16.00
2022-12-11T23:27:42.505Z,15.10
2022-12-11T23:42:42.956Z,15.50
2022-12-11T23:57:43.620Z,16.10
